Time,TemperatureF,DewpointF,PressureIn,WindDirection,WindDirectionDegrees,WindSpeedMPH,WindSpeedGustMPH,Humidity,HourlyPrecipIn,Conditions,Clouds,dailyrainin,SoftwareType,DateUTC
2013-08-15 11:34:00,-999.0,-99.9,25.83,SE,137,3.0,9.0,-999,0.00,,,0.00,,2013-08-15 18:34:00,
2013-08-15 11:40:00,-999.0,-99.9,25.83,SW,222,1.0,10.0,96,0.00,,,0.00,,2013-08-15 18:40:00,
2013-08-15 11:49:00,64.0,63.0,25.83,SW,222,1.0,10.0,96,0.00,,,0.00,,2013-08-15 18:49:00,
2013-08-15 12:03:00,-999.0,-99.9,25.83,SW,222,1.0,10.0,-999,0.00,,,0.00,,2013-08-15 19:03:00,
2013-08-15 12:17:00,64.0,63.0,25.83,South,186,4.0,10.0,95,0.00,,,0.00,,2013-08-15 19:17:00,
2013-08-15 12:34:00,-999.0,-99.9,25.83,South,186,4.0,10.0,-999,-99.99,,,-99.99,,2013-08-15 19:34:00,
2013-08-15 13:09:00,64.0,63.0,25.83,SE,133,3.0,9.0,96,0.00,,,0.00,,2013-08-15 20:09:00,
2013-08-15 13:26:00,64.0,63.0,25.83,SE,141,0.0,7.0,96,0.00,,,0.00,,2013-08-15 20:26:00,
2013-08-15 13:57:00,65.0,63.0,25.83,South,182,1.0,10.0,94,0.00,,,0.00,,2013-08-15 20:57:00,
2013-08-15 14:57:00,70.0,65.0,25.83,SSW,210,4.0,10.0,84,0.00,,,0.00,,2013-08-15 21:57:00,
2013-08-15 15:17:00,71.0,66.0,25.83,SE,130,3.0,11.0,84,0.00,,,0.00,,2013-08-15 22:17:00,
2013-08-15 15:29:00,71.0,66.0,25.83,SE,130,3.0,11.0,84,0.00,,,0.00,,2013-08-15 22:29:00,
2013-08-15 15:58:00,68.0,64.0,25.83,ESE,123,5.0,7.0,87,0.00,,,0.00,,2013-08-15 22:58:00,
2013-08-15 16:34:00,-999.0,-99.9,25.83,SSW,208,6.0,15.0,90,0.00,,,0.00,,2013-08-15 23:34:00,
2013-08-15 16:55:00,65.0,63.0,25.83,SSW,201,2.0,11.0,93,0.00,,,0.00,,2013-08-15 23:55:00,
2013-08-15 17:12:00,63.0,61.0,25.83,SW,215,1.0,9.0,94,0.00,,,0.00,,2013-08-16 00:12:00,
2013-08-15 17:24:00,63.0,61.0,25.83,SW,215,1.0,9.0,94,0.00,,,0.00,,2013-08-16 00:24:00,
2013-08-15 17:37:00,63.0,61.0,25.83,SW,215,1.0,9.0,94,0.00,,,0.00,,2013-08-16 00:37:00,
2013-08-15 17:44:00,63.0,61.0,25.83,SW,215,1.0,9.0,94,0.00,,,0.00,,2013-08-16 00:44:00,
2013-08-15 18:26:00,64.0,63.0,25.83,SW,229,0.0,1.0,96,0.00,,,0.00,,2013-08-16 01:26:00,
2013-08-15 18:42:00,-999.0,-99.9,25.83,SSW,213,3.0,-999.0,-999,-99.99,,,-99.99,,2013-08-16 01:42:00,
2013-08-15 18:54:00,67.0,65.0,25.83,WSW,239,0.0,6.0,93,0.00,,,0.00,,2013-08-16 01:54:00,
2013-08-15 19:02:00,67.0,65.0,25.83,WSW,239,0.0,6.0,93,0.00,,,0.00,,2013-08-16 02:02:00,
2013-08-15 19:12:00,67.0,65.0,25.83,WSW,239,0.0,6.0,93,0.00,,,0.00,,2013-08-16 02:12:00,
2013-08-15 19:21:00,67.0,65.0,25.83,WSW,239,0.0,6.0,93,0.00,,,0.00,,2013-08-16 02:21:00,
2013-08-15 19:44:00,64.0,61.0,25.83,SW,218,3.0,9.0,91,0.00,,,0.00,,2013-08-16 02:44:00,
2013-08-15 19:52:00,64.0,61.0,25.83,SW,218,3.0,9.0,91,0.00,,,0.00,,2013-08-16 02:52:00,
2013-08-15 20:21:00,62.0,61.0,25.83,SW,223,0.0,1.0,95,0.00,,,0.00,,2013-08-16 03:21:00,